createdAt,value
2017-02-06T00:00:21.878Z,79.31
2017-02-06T00:00:48.037Z,79.22
2017-02-06T00:01:14.227Z,79.41
2017-02-06T00:01:40.396Z,79.03
2017-02-06T00:02:06.499Z,79.6
2017-02-06T00:02:32.676Z,79.6
2017-02-06T00:02:58.808Z,79.41
2017-02-06T00:03:24.905Z,79.5
2017-02-06T00:03:51.032Z,79.69
2017-02-06T00:04:17.172Z,79.79
2017-02-06T00:04:43.334Z,79.79
2017-02-06T00:05:09.506Z,79.22
2017-02-06T00:05:35.687Z,79.41
2017-02-06T00:06:01.836Z,79.41
2017-02-06T00:06:27.981Z,79.41
2017-02-06T00:06:54.067Z,79.6
2017-02-06T00:07:20.213Z,79.6
2017-02-06T00:07:46.406Z,79.31
2017-02-06T00:08:12.584Z,79.6
2017-02-06T00:08:38.706Z,79.6
2017-02-06T00:09:04.898Z,79.69
2017-02-06T00:09:31.027Z,79.5
2017-02-06T00:09:57.160Z,79.79
2017-02-06T00:10:23.308Z,79.97
2017-02-06T00:10:49.506Z,79.22
2017-02-06T00:11:15.674Z,79.41
2017-02-06T00:11:41.851Z,79.97
2017-02-06T00:12:07.939Z,79.88
2017-02-06T00:12:34.108Z,79.79
2017-02-06T00:13:00.232Z,79.97
2017-02-06T00:13:26.346Z,79.88
2017-02-06T00:13:52.536Z,79.88
2017-02-06T00:14:18.718Z,79.69
2017-02-06T00:14:44.868Z,79.79
2017-02-06T00:15:10.985Z,79.97
2017-02-06T00:15:37.187Z,79.97
2017-02-06T00:16:03.318Z,79.88
2017-02-06T00:16:29.449Z,79.88
2017-02-06T00:16:55.634Z,79.79
2017-02-06T00:17:21.851Z,79.97
2017-02-06T00:17:48.009Z,79.88
2017-02-06T00:18:14.157Z,79.88
2017-02-06T00:18:40.346Z,79.88
2017-02-06T00:19:06.575Z,79.88
2017-02-06T00:19:32.666Z,80.35
2017-02-06T00:19:58.792Z,79.97
2017-02-06T00:20:24.953Z,80.45
2017-02-06T00:20:51.136Z,80.55
2017-02-06T00:21:17.264Z,79.88
2017-02-06T00:21:43.381Z,80.16
2017-02-06T00:22:09.519Z,80.45
2017-02-06T00:22:35.684Z,79.79
2017-02-06T00:23:01.820Z,79.79
2017-02-06T00:23:27.981Z,79.88
2017-02-06T00:23:54.151Z,79.79
2017-02-06T00:24:20.291Z,79.97
2017-02-06T00:24:46.443Z,80.26
2017-02-06T00:25:12.643Z,80.55
2017-02-06T00:25:38.808Z,80.45
2017-02-06T00:26:04.970Z,80.26
2017-02-06T00:26:31.087Z,80.35
2017-02-06T00:26:57.238Z,80.74
2017-02-06T00:27:23.405Z,80.55
2017-02-06T00:27:49.516Z,80.64
2017-02-06T00:28:15.636Z,80.55
2017-02-06T00:28:41.741Z,80.64
2017-02-06T00:29:07.866Z,80.26
2017-02-06T00:29:34.008Z,80.35
2017-02-06T00:30:00.204Z,80.55
2017-02-06T00:30:26.384Z,80.26
2017-02-06T00:30:52.531Z,80.45
2017-02-06T00:31:18.668Z,80.83
2017-02-06T00:31:44.823Z,80.64
2017-02-06T00:32:10.970Z,80.35
2017-02-06T00:32:37.125Z,80.64
2017-02-06T00:33:03.296Z,80.83
2017-02-06T00:33:29.427Z,80.55
2017-02-06T00:33:55.576Z,80.35
2017-02-06T00:34:21.745Z,80.45
2017-02-06T00:34:47.890Z,80.45
2017-02-06T00:35:14.041Z,80.74
2017-02-06T00:35:40.214Z,80.93
2017-02-06T00:36:06.356Z,81.4
2017-02-06T00:36:32.497Z,80.45
2017-02-06T00:36:58.627Z,81.02
2017-02-06T00:37:24.785Z,81.02
2017-02-06T00:37:50.946Z,81.02
2017-02-06T00:38:17.040Z,81.21
2017-02-06T00:38:43.131Z,81.02
2017-02-06T00:39:09.295Z,80.74
2017-02-06T00:39:35.478Z,81.21
2017-02-06T00:40:01.619Z,81.12
2017-02-06T00:40:27.757Z,81.12
2017-02-06T00:40:53.960Z,81.78
2017-02-06T00:41:20.047Z,81.68
2017-02-06T00:41:46.202Z,81.49
2017-02-06T00:42:12.363Z,81.4
2017-02-06T00:42:38.455Z,81.49
2017-02-06T00:43:04.581Z,81.97
2017-02-06T00:43:30.726Z,81.68
2017-02-06T00:43:56.914Z,81.87
2017-02-06T00:44:23.042Z,81.78
2017-02-06T00:44:49.204Z,82.26
2017-02-06T00:45:15.371Z,81.59
2017-02-06T00:45:41.497Z,81.97
2017-02-06T00:46:07.589Z,82.35
2017-02-06T00:46:33.721Z,82.07
2017-02-06T00:46:59.916Z,82.54
2017-02-06T00:47:26.078Z,81.87
2017-02-06T00:47:52.210Z,82.16
2017-02-06T00:48:18.332Z,82.07
2017-02-06T00:48:44.465Z,81.97
2017-02-06T00:49:10.618Z,81.97
2017-02-06T00:49:36.708Z,81.78
2017-02-06T00:50:02.842Z,82.07
2017-02-06T00:50:29.007Z,81.97
2017-02-06T00:50:55.128Z,82.07
2017-02-06T00:51:21.302Z,81.97
2017-02-06T00:51:47.466Z,82.07
2017-02-06T00:52:13.609Z,82.35
2017-02-06T00:52:39.750Z,81.78
2017-02-06T00:53:05.917Z,81.68
2017-02-06T00:53:32.041Z,81.78
2017-02-06T00:53:58.168Z,82.07
2017-02-06T00:54:24.278Z,81.97
2017-02-06T00:54:50.409Z,82.16
2017-02-06T00:55:16.543Z,82.45
2017-02-06T00:55:42.663Z,82.26
2017-02-06T00:56:08.818Z,82.64
2017-02-06T00:56:34.952Z,82.26
2017-02-06T00:57:01.045Z,82.64
2017-02-06T00:57:27.177Z,82.26
2017-02-06T00:57:53.316Z,82.26
2017-02-06T00:58:19.467Z,82.26
2017-02-06T00:58:45.560Z,82.54
2017-02-06T00:59:11.720Z,82.35
2017-02-06T00:59:37.862Z,82.26
2017-02-06T01:00:04.053Z,82.31
2017-02-06T01:00:30.152Z,82.5
2017-02-06T01:00:56.299Z,82.4
2017-02-06T01:01:22.460Z,82.88
2017-02-06T01:01:48.558Z,82.78
2017-02-06T01:02:14.705Z,82.88
2017-02-06T01:02:40.897Z,82.97
2017-02-06T01:03:07.090Z,83.07
2017-02-06T01:03:33.199Z,82.88
2017-02-06T01:03:59.354Z,82.69
2017-02-06T01:04:25.456Z,82.69
2017-02-06T01:04:51.578Z,82.4
2017-02-06T01:05:17.737Z,82.5
2017-02-06T01:05:43.896Z,82.5
2017-02-06T01:06:09.989Z,82.5
2017-02-06T01:06:36.148Z,82.78
2017-02-06T01:07:02.243Z,82.69
2017-02-06T01:07:28.369Z,82.78
2017-02-06T01:07:54.540Z,82.88
2017-02-06T01:08:20.679Z,83.36
2017-02-06T01:08:46.832Z,83.07
2017-02-06T01:09:13.027Z,83.16
2017-02-06T01:09:39.147Z,82.88
2017-02-06T01:10:05.324Z,83.07
2017-02-06T01:10:31.455Z,82.88
2017-02-06T01:10:57.639Z,82.69
2017-02-06T01:11:23.743Z,82.59
2017-02-06T01:11:49.913Z,82.5
2017-02-06T01:12:16.041Z,82.88
2017-02-06T01:12:42.229Z,82.97
2017-02-06T01:13:08.346Z,82.21
2017-02-06T01:13:34.443Z,82.78
2017-02-06T01:14:00.588Z,82.78
2017-02-06T01:14:26.710Z,82.88
2017-02-06T01:14:52.857Z,82.78
2017-02-06T01:15:18.985Z,83.07
2017-02-06T01:15:45.144Z,82.88
2017-02-06T01:16:11.259Z,82.78
2017-02-06T01:16:37.386Z,82.88
2017-02-06T01:17:03.551Z,82.88
2017-02-06T01:17:29.662Z,83.16
2017-02-06T01:17:55.825Z,83.07
2017-02-06T01:18:21.966Z,83.54
2017-02-06T01:18:48.112Z,83.36
2017-02-06T01:19:14.204Z,83.16
2017-02-06T01:19:40.402Z,83.16
2017-02-06T01:20:06.595Z,83.26
2017-02-06T01:20:32.749Z,83.36
2017-02-06T01:20:58.907Z,83.26
2017-02-06T01:21:25.029Z,82.97
2017-02-06T01:21:51.165Z,83.16
2017-02-06T01:22:17.299Z,83.16
2017-02-06T01:22:43.400Z,83.26
2017-02-06T01:23:09.559Z,83.26
2017-02-06T01:23:35.702Z,83.45
2017-02-06T01:24:01.825Z,83.16
2017-02-06T01:24:27.932Z,83.36
2017-02-06T01:24:54.103Z,83.45
2017-02-06T01:25:20.187Z,83.16
2017-02-06T01:25:46.332Z,83.45
2017-02-06T01:26:12.482Z,83.16
2017-02-06T01:26:38.605Z,83.16
2017-02-06T01:27:04.766Z,82.97
2017-02-06T01:27:30.908Z,82.4
2017-02-06T01:27:57.048Z,82.4
2017-02-06T01:28:23.187Z,82.5
2017-02-06T01:28:49.348Z,82.78
2017-02-06T01:29:15.462Z,82.59
2017-02-06T01:29:41.613Z,82.73
2017-02-06T01:30:07.723Z,82.73
2017-02-06T01:30:33.865Z,82.64
2017-02-06T01:30:59.997Z,82.45
2017-02-06T01:31:26.140Z,82.54
2017-02-06T01:31:52.297Z,82.16
2017-02-06T01:32:18.427Z,82.5
2017-02-06T01:32:44.555Z,82.31
2017-02-06T01:33:10.711Z,82.21
2017-02-06T01:33:36.828Z,82.88
2017-02-06T01:34:02.994Z,82.21
2017-02-06T01:34:29.154Z,82.78
2017-02-06T01:34:55.272Z,82.78
2017-02-06T01:35:21.406Z,82.4
2017-02-06T01:35:47.577Z,82.4
2017-02-06T01:36:13.680Z,82.78
2017-02-06T01:36:39.805Z,82.59
2017-02-06T01:37:05.938Z,82.59
2017-02-06T01:37:32.091Z,82.59
2017-02-06T01:37:58.239Z,82.97
2017-02-06T01:38:24.360Z,83.36
2017-02-06T01:38:50.497Z,82.78
2017-02-06T01:39:16.652Z,82.4
2017-02-06T01:39:42.797Z,82.59
2017-02-06T01:40:08.920Z,82.59
2017-02-06T01:40:35.089Z,82.97
2017-02-06T01:41:01.177Z,82.69
2017-02-06T01:41:27.307Z,82.59
2017-02-06T01:41:53.437Z,82.78
2017-02-06T01:42:19.556Z,82.59
2017-02-06T01:42:45.665Z,82.59
2017-02-06T01:43:11.799Z,82.88
2017-02-06T01:43:37.934Z,83.16
2017-02-06T01:44:04.063Z,82.69
2017-02-06T01:44:30.238Z,83.07
2017-02-06T01:44:56.359Z,82.5
2017-02-06T01:45:22.519Z,82.59
2017-02-06T01:45:48.648Z,82.59
2017-02-06T01:46:14.728Z,83.36
2017-02-06T01:46:40.893Z,82.97
2017-02-06T01:47:07.048Z,82.59
2017-02-06T01:47:33.161Z,82.69
2017-02-06T01:47:59.294Z,82.78
2017-02-06T01:48:25.419Z,82.69
2017-02-06T01:48:51.508Z,82.59
2017-02-06T01:49:17.639Z,83.26
2017-02-06T01:49:43.761Z,83.26
2017-02-06T01:50:09.921Z,82.4
2017-02-06T01:50:36.072Z,82.59
2017-02-06T01:51:02.184Z,82.78
2017-02-06T01:51:28.318Z,82.59
2017-02-06T01:51:54.449Z,82.78
2017-02-06T01:52:20.620Z,83.07
2017-02-06T01:52:46.749Z,82.88
2017-02-06T01:53:12.884Z,82.88
2017-02-06T01:53:38.970Z,83.16
2017-02-06T01:54:05.148Z,83.16
2017-02-06T01:54:31.319Z,83.16
2017-02-06T01:54:57.436Z,82.97
2017-02-06T01:55:23.598Z,82.88
2017-02-06T01:55:49.728Z,83.16
2017-02-06T01:56:15.819Z,82.78
2017-02-06T01:56:41.990Z,82.69
2017-02-06T01:57:08.096Z,82.78
2017-02-06T01:57:34.258Z,82.78
2017-02-06T01:58:00.427Z,82.78
2017-02-06T01:58:26.544Z,82.73
2017-02-06T01:58:52.640Z,82.78
2017-02-06T01:59:18.773Z,82.54
2017-02-06T01:59:44.890Z,82.97
2017-02-06T02:00:11.024Z,82.97
2017-02-06T02:00:37.226Z,82.59
2017-02-06T02:01:03.319Z,82.5
2017-02-06T02:01:29.440Z,82.88
2017-02-06T02:01:55.601Z,83.16
2017-02-06T02:02:21.733Z,83.16
2017-02-06T02:02:47.822Z,82.78
2017-02-06T02:03:13.978Z,82.78
2017-02-06T02:03:40.089Z,82.4
2017-02-06T02:04:06.206Z,83.07
2017-02-06T02:04:32.307Z,82.97
2017-02-06T02:04:58.442Z,82.97
2017-02-06T02:05:24.557Z,82.88
2017-02-06T02:05:50.694Z,83.16
2017-02-06T02:06:16.793Z,83.39
2017-02-06T02:06:43.005Z,83.39
2017-02-06T02:07:09.107Z,83.49
2017-02-06T02:07:35.250Z,82.92
2017-02-06T02:08:01.374Z,83.16
2017-02-06T02:08:27.509Z,83.16
2017-02-06T02:08:53.646Z,82.88
2017-02-06T02:09:19.797Z,82.88
2017-02-06T02:09:45.983Z,82.97
2017-02-06T02:10:12.081Z,83.16
2017-02-06T02:10:38.200Z,82.88
2017-02-06T02:11:04.340Z,82.97
2017-02-06T02:11:30.487Z,82.88
2017-02-06T02:11:56.618Z,83.45
2017-02-06T02:12:22.764Z,83.26
2017-02-06T02:12:48.864Z,83.26
2017-02-06T02:13:15.053Z,82.88
2017-02-06T02:13:41.145Z,83.26
2017-02-06T02:14:07.276Z,83.45
2017-02-06T02:14:33.444Z,83.45
2017-02-06T02:14:59.570Z,83.36
2017-02-06T02:15:25.764Z,83.45
2017-02-06T02:15:51.919Z,83.26
2017-02-06T02:16:18.077Z,82.97
2017-02-06T02:16:44.186Z,83.26
2017-02-06T02:17:10.318Z,83.16
2017-02-06T02:17:36.440Z,83.2
2017-02-06T02:18:02.573Z,83.45
2017-02-06T02:18:28.673Z,83.16
2017-02-06T02:18:54.755Z,82.88
2017-02-06T02:19:20.957Z,83.36
2017-02-06T02:19:47.121Z,83.45
2017-02-06T02:20:13.231Z,83.49
2017-02-06T02:20:39.356Z,83.49
2017-02-06T02:21:05.518Z,83.11
2017-02-06T02:21:31.661Z,83.39
2017-02-06T02:21:57.861Z,83.39
2017-02-06T02:22:24.022Z,83.39
2017-02-06T02:22:50.172Z,83.11
2017-02-06T02:23:16.334Z,83.49
2017-02-06T02:23:42.479Z,83.2
2017-02-06T02:24:08.579Z,83.36
2017-02-06T02:24:34.713Z,83.2
2017-02-06T02:25:00.827Z,83.2
2017-02-06T02:25:26.974Z,83.39
2017-02-06T02:25:53.112Z,83.49
2017-02-06T02:26:19.203Z,83.01
2017-02-06T02:26:45.355Z,83.11
2017-02-06T02:27:11.458Z,83.2
2017-02-06T02:27:37.554Z,83.11
2017-02-06T02:28:03.642Z,82.92
2017-02-06T02:28:29.748Z,83.01
2017-02-06T02:28:55.932Z,83.49
2017-02-06T02:29:22.101Z,83.49
2017-02-06T02:29:48.271Z,83.49
2017-02-06T02:30:14.415Z,83.11
2017-02-06T02:30:40.631Z,83.49
2017-02-06T02:31:06.803Z,83.39
2017-02-06T02:31:32.925Z,83.01
2017-02-06T02:31:59.145Z,83.11
2017-02-06T02:32:25.294Z,83.2
2017-02-06T02:32:51.440Z,83.2
2017-02-06T02:33:17.576Z,83.01
2017-02-06T02:33:43.739Z,83.11
2017-02-06T02:34:09.836Z,82.92
2017-02-06T02:34:36.015Z,82.82
2017-02-06T02:35:02.151Z,83.2
2017-02-06T02:35:28.363Z,83.2
2017-02-06T02:35:54.463Z,83.11
2017-02-06T02:36:20.578Z,82.92
2017-02-06T02:36:46.738Z,83.01
2017-02-06T02:37:12.865Z,83.01
2017-02-06T02:37:38.988Z,82.92
2017-02-06T02:38:05.086Z,83.11
2017-02-06T02:38:31.288Z,83.2
2017-02-06T02:38:57.393Z,83.2
2017-02-06T02:39:23.527Z,83.39
2017-02-06T02:39:49.671Z,82.92
2017-02-06T02:40:15.856Z,82.92
2017-02-06T02:40:41.955Z,83.2
2017-02-06T02:41:08.070Z,83.2
2017-02-06T02:41:34.175Z,83.3
2017-02-06T02:42:00.313Z,83.3
2017-02-06T02:42:26.455Z,83.39
2017-02-06T02:42:52.658Z,83.2
2017-02-06T02:43:18.789Z,83.2
2017-02-06T02:43:44.935Z,83.2
2017-02-06T02:44:11.058Z,83.2
2017-02-06T02:44:37.226Z,83.2
2017-02-06T02:45:03.343Z,82.92
2017-02-06T02:45:29.427Z,83.2
2017-02-06T02:45:55.531Z,83.11
2017-02-06T02:46:21.629Z,82.92
2017-02-06T02:46:47.742Z,83.2
2017-02-06T02:47:13.901Z,83.2
2017-02-06T02:47:40.064Z,83.2
2017-02-06T02:48:06.233Z,83.39
2017-02-06T02:48:32.417Z,83.3
2017-02-06T02:48:58.551Z,83.39
2017-02-06T02:49:24.666Z,83.01
2017-02-06T02:49:50.784Z,82.92
2017-02-06T02:50:16.977Z,82.82
2017-02-06T02:50:43.174Z,83.01
2017-02-06T02:51:09.297Z,82.64
2017-02-06T02:51:35.463Z,82.54
2017-02-06T02:52:01.653Z,82.64
2017-02-06T02:52:27.786Z,82.92
2017-02-06T02:52:53.924Z,82.92
2017-02-06T02:53:20.094Z,82.92
2017-02-06T02:53:46.254Z,82.82
2017-02-06T02:54:12.370Z,82.82
2017-02-06T02:54:38.555Z,82.73
2017-02-06T02:55:04.653Z,83.01
2017-02-06T02:55:30.804Z,83.11
2017-02-06T02:55:56.891Z,82.92
2017-02-06T02:56:23.081Z,83.01
2017-02-06T02:56:49.185Z,83.39
2017-02-06T02:57:15.349Z,83.49
2017-02-06T02:57:41.501Z,83.2
2017-02-06T02:58:07.669Z,83.49
2017-02-06T02:58:33.842Z,83.3
2017-02-06T02:58:59.955Z,82.92
2017-02-06T02:59:26.103Z,83.01
2017-02-06T02:59:52.234Z,83.11
2017-02-06T03:00:18.389Z,83.11
2017-02-06T03:00:44.521Z,83.2
2017-02-06T03:01:10.692Z,83.11
2017-02-06T03:01:36.850Z,83.49
2017-02-06T03:02:02.997Z,83.2
2017-02-06T03:02:29.090Z,83.2
2017-02-06T03:02:55.202Z,83.68
2017-02-06T03:03:21.365Z,83.2
2017-02-06T03:03:47.521Z,83.59
2017-02-06T03:04:13.630Z,83.01
2017-02-06T03:04:39.763Z,83.11
2017-02-06T03:05:05.891Z,83.2
2017-02-06T03:05:32.043Z,83.2
2017-02-06T03:05:58.171Z,83.2
2017-02-06T03:06:24.365Z,83.01
2017-02-06T03:06:50.501Z,83.2
2017-02-06T03:07:16.683Z,83.2
2017-02-06T03:07:42.832Z,83.59
2017-02-06T03:08:08.997Z,83.2
2017-02-06T03:08:35.185Z,83.2
2017-02-06T03:09:01.276Z,83.2
2017-02-06T03:09:27.433Z,83.2
2017-02-06T03:09:53.616Z,83.2
2017-02-06T03:10:19.785Z,83.2
2017-02-06T03:10:45.932Z,83.2
2017-02-06T03:11:12.062Z,83.2
2017-02-06T03:11:38.206Z,82.92
2017-02-06T03:12:04.300Z,83.2
2017-02-06T03:12:30.409Z,83.11
2017-02-06T03:12:56.551Z,83.2
2017-02-06T03:13:22.743Z,83.49
2017-02-06T03:13:48.879Z,83.39
2017-02-06T03:14:15.000Z,83.2
2017-02-06T03:14:41.110Z,83.49
2017-02-06T03:15:07.254Z,83.11
2017-02-06T03:15:33.386Z,83.39
2017-02-06T03:15:59.544Z,83.2
2017-02-06T03:16:25.693Z,83.49
2017-02-06T03:16:51.832Z,82.92
2017-02-06T03:17:17.940Z,83.39
2017-02-06T03:17:44.087Z,83.11
2017-02-06T03:18:10.246Z,83.39
2017-02-06T03:18:36.465Z,83.39
2017-02-06T03:19:02.602Z,83.2
2017-02-06T03:19:28.804Z,83.2
2017-02-06T03:19:54.944Z,83.3
2017-02-06T03:20:21.121Z,83.39
2017-02-06T03:20:47.275Z,83.11
2017-02-06T03:21:13.402Z,83.3
2017-02-06T03:21:39.488Z,83.01
2017-02-06T03:22:05.646Z,83.11
2017-02-06T03:22:31.799Z,83.2
2017-02-06T03:22:57.934Z,83.39
2017-02-06T03:23:24.081Z,83.78
2017-02-06T03:23:50.221Z,83.78
2017-02-06T03:24:16.372Z,83.68
2017-02-06T03:24:42.498Z,83.59
2017-02-06T03:25:08.610Z,83.49
2017-02-06T03:25:34.718Z,83.3
2017-02-06T03:26:00.868Z,83.2
2017-02-06T03:26:27.041Z,83.2
2017-02-06T03:26:53.171Z,83.2
2017-02-06T03:27:19.307Z,83.2
2017-02-06T03:27:45.417Z,83.01
2017-02-06T03:28:11.596Z,83.11
2017-02-06T03:28:37.735Z,83.49
2017-02-06T03:29:03.879Z,82.92
2017-02-06T03:29:30.025Z,83.11
2017-02-06T03:29:56.190Z,83.49
2017-02-06T03:30:22.392Z,83.3
2017-02-06T03:30:48.531Z,83.2
2017-02-06T03:31:14.697Z,83.39
2017-02-06T03:31:40.792Z,82.82
2017-02-06T03:32:06.936Z,82.92
2017-02-06T03:32:33.067Z,83.2
2017-02-06T03:32:59.162Z,83.2
2017-02-06T03:33:25.278Z,83.11
2017-02-06T03:33:51.439Z,83.01
2017-02-06T03:34:17.593Z,83.39
2017-02-06T03:34:43.711Z,83.39
2017-02-06T03:35:09.865Z,83.2
2017-02-06T03:35:36.037Z,83.01
2017-02-06T03:36:02.169Z,83.2
2017-02-06T03:36:28.364Z,83.2
2017-02-06T03:36:54.473Z,83.3
2017-02-06T03:37:20.637Z,83.3
2017-02-06T03:37:46.793Z,83.2
2017-02-06T03:38:12.908Z,83.39
2017-02-06T03:38:39.057Z,83.39
2017-02-06T03:39:05.229Z,83.2
2017-02-06T03:39:31.340Z,83.2
2017-02-06T03:39:57.465Z,83.2
2017-02-06T03:40:23.594Z,83.3
2017-02-06T03:40:49.720Z,83.2
2017-02-06T03:41:15.914Z,83.2
2017-02-06T03:41:42.024Z,83.39
2017-02-06T03:42:08.251Z,83.49
2017-02-06T03:42:34.379Z,82.92
2017-02-06T03:43:00.529Z,83.2
2017-02-06T03:43:26.629Z,83.3
2017-02-06T03:43:52.760Z,82.92
2017-02-06T03:44:18.876Z,83.01
2017-02-06T03:44:44.993Z,83.01
2017-02-06T03:45:11.129Z,82.92
2017-02-06T03:45:37.257Z,83.3
2017-02-06T03:46:03.379Z,83.39
2017-02-06T03:46:29.540Z,83.2
2017-02-06T03:46:55.688Z,83.39
2017-02-06T03:47:21.840Z,83.2
2017-02-06T03:47:48.027Z,83.01
2017-02-06T03:48:14.193Z,83.2
2017-02-06T03:48:40.333Z,83.3
2017-02-06T03:49:06.465Z,83.68
2017-02-06T03:49:32.629Z,83.39
2017-02-06T03:49:58.768Z,83.39
2017-02-06T03:50:24.865Z,83.2
2017-02-06T03:50:52.038Z,83.39
2017-02-06T03:51:18.444Z,83.78
2017-02-06T03:51:45.539Z,83.68
2017-02-06T03:52:12.366Z,83.49
2017-02-06T03:52:38.697Z,83.39
2017-02-06T03:53:05.434Z,83.01
2017-02-06T03:53:32.713Z,83.39
2017-02-06T03:53:59.942Z,83.2
2017-02-06T03:54:27.719Z,83.3
2017-02-06T03:54:54.435Z,83.2
2017-02-06T03:55:21.879Z,83.2
2017-02-06T03:55:49.640Z,83.01
2017-02-06T03:56:17.055Z,83.2
2017-02-06T03:56:44.031Z,83.39
2017-02-06T03:57:11.488Z,83.01
2017-02-06T03:57:38.558Z,82.92
2017-02-06T03:58:04.967Z,82.82
2017-02-06T03:58:31.196Z,83.01
2017-02-06T03:58:57.358Z,82.64
2017-02-06T03:59:23.469Z,82.54
2017-02-06T03:59:49.600Z,82.82
2017-02-06T04:00:15.705Z,82.82
2017-02-06T04:00:41.863Z,82.82
2017-02-06T04:01:08.013Z,83.01
2017-02-06T04:01:34.120Z,83.11
2017-02-06T04:02:00.225Z,83.11
2017-02-06T04:02:26.394Z,83.2
2017-02-06T04:02:52.541Z,83.11
2017-02-06T04:03:18.697Z,83.01
2017-02-06T04:03:44.797Z,83.2
2017-02-06T04:04:11.238Z,83.39
2017-02-06T04:04:37.401Z,83.49
2017-02-06T04:05:03.825Z,83.39
2017-02-06T04:05:29.936Z,83.11
2017-02-06T04:05:56.122Z,83.01
2017-02-06T04:06:22.292Z,83.2
2017-02-06T04:06:48.460Z,83.01
2017-02-06T04:07:14.608Z,83.2
2017-02-06T04:07:40.742Z,83.59
2017-02-06T04:08:06.932Z,83.68
2017-02-06T04:08:33.045Z,83.78
2017-02-06T04:08:59.402Z,83.78
2017-02-06T04:09:25.518Z,83.87
2017-02-06T04:09:51.760Z,83.78
2017-02-06T04:10:17.962Z,83.87
2017-02-06T04:10:44.072Z,83.87
2017-02-06T04:11:10.234Z,83.78
2017-02-06T04:11:36.349Z,83.78
2017-02-06T04:12:02.492Z,83.59
2017-02-06T04:12:28.680Z,83.78
2017-02-06T04:12:54.837Z,83.97
2017-02-06T04:13:20.942Z,83.87
2017-02-06T04:13:47.090Z,83.97
2017-02-06T04:14:13.256Z,83.87
2017-02-06T04:14:39.401Z,83.68
2017-02-06T04:15:05.587Z,83.78
2017-02-06T04:15:31.725Z,83.97
2017-02-06T04:15:57.885Z,83.3
2017-02-06T04:16:24.092Z,83.3
2017-02-06T04:16:50.187Z,83.11
2017-02-06T04:17:16.337Z,83.3
2017-02-06T04:17:42.434Z,83.39
2017-02-06T04:18:08.588Z,83.49
2017-02-06T04:18:34.743Z,83.39
2017-02-06T04:19:00.857Z,82.92
2017-02-06T04:19:27.040Z,83.01
2017-02-06T04:19:53.169Z,83.49
2017-02-06T04:20:19.313Z,83.3
2017-02-06T04:20:45.436Z,83.39
2017-02-06T04:21:11.577Z,83.97
2017-02-06T04:21:37.768Z,83.97
2017-02-06T04:22:03.930Z,84.25
2017-02-06T04:22:30.068Z,84.34
2017-02-06T04:22:56.180Z,84.16
2017-02-06T04:23:22.360Z,84.53
2017-02-06T04:23:48.498Z,84.44
2017-02-06T04:24:14.677Z,84.72
2017-02-06T04:24:40.888Z,84.63
2017-02-06T04:25:07.008Z,84.72
2017-02-06T04:25:33.130Z,84.82
2017-02-06T04:25:59.298Z,85.01
2017-02-06T04:26:25.431Z,85.2
2017-02-06T04:26:51.648Z,84.82
2017-02-06T04:27:17.857Z,85.01
2017-02-06T04:27:44.008Z,85.11
2017-02-06T04:28:10.122Z,84.82
2017-02-06T04:28:36.262Z,85.11
2017-02-06T04:29:02.414Z,84.44
2017-02-06T04:29:28.546Z,84.82
2017-02-06T04:29:54.682Z,84.34
2017-02-06T04:30:20.905Z,84.06
2017-02-06T04:30:47.048Z,84.53
2017-02-06T04:31:13.237Z,84.16
2017-02-06T04:31:39.361Z,84.34
2017-02-06T04:32:05.514Z,84.16
2017-02-06T04:32:31.662Z,84.34
2017-02-06T04:32:57.819Z,84.34
2017-02-06T04:33:23.958Z,84.06
2017-02-06T04:33:50.074Z,84.16
2017-02-06T04:34:16.272Z,84.25
2017-02-06T04:34:42.420Z,84.44
2017-02-06T04:35:08.538Z,84.44
2017-02-06T04:35:34.731Z,84.82
2017-02-06T04:36:00.895Z,84.16
2017-02-06T04:36:26.980Z,84.25
2017-02-06T04:36:53.162Z,84.72
2017-02-06T04:37:19.274Z,84.44
2017-02-06T04:37:45.392Z,85.01
2017-02-06T04:38:11.545Z,84.63
2017-02-06T04:38:37.667Z,85.2
2017-02-06T04:39:03.770Z,85.2
2017-02-06T04:39:30.008Z,85.68
2017-02-06T04:39:56.121Z,85.68
2017-02-06T04:40:22.307Z,84.82
2017-02-06T04:40:48.416Z,84.91
2017-02-06T04:41:14.527Z,85.3
2017-02-06T04:41:40.627Z,85.86
2017-02-06T04:42:06.761Z,85.77
2017-02-06T04:42:32.849Z,84.72
2017-02-06T04:42:59.014Z,85.3
2017-02-06T04:43:25.124Z,85.01
2017-02-06T04:43:51.250Z,84.91
2017-02-06T04:44:17.377Z,85.11
2017-02-06T04:44:43.495Z,85.01
2017-02-06T04:45:09.646Z,85.58
2017-02-06T04:45:35.785Z,86.24
2017-02-06T04:46:01.876Z,85.82
2017-02-06T04:46:28.022Z,85.82
2017-02-06T04:46:54.185Z,86.11
2017-02-06T04:47:20.324Z,86.11
2017-02-06T04:47:46.467Z,86.11
2017-02-06T04:48:12.626Z,86.24
2017-02-06T04:48:38.748Z,85.77
2017-02-06T04:49:04.891Z,85.96
2017-02-06T04:49:30.980Z,86.34
2017-02-06T04:49:57.129Z,86.53
2017-02-06T04:50:23.263Z,86.05
2017-02-06T04:50:49.383Z,86.15
2017-02-06T04:51:15.549Z,86.11
2017-02-06T04:51:41.807Z,86.39
2017-02-06T04:52:07.961Z,86.2
2017-02-06T04:52:34.107Z,85.91
2017-02-06T04:53:00.295Z,86.3
2017-02-06T04:53:26.454Z,86.87
2017-02-06T04:53:52.579Z,86.77
2017-02-06T04:54:18.706Z,86.68
2017-02-06T04:54:44.819Z,86.3
2017-02-06T04:55:10.994Z,86.49
2017-02-06T04:55:37.116Z,86.68
2017-02-06T04:56:03.290Z,86.96
2017-02-06T04:56:29.422Z,86.68
2017-02-06T04:56:55.557Z,86.68
2017-02-06T04:57:21.702Z,86.58
2017-02-06T04:57:47.876Z,87.05
2017-02-06T04:58:14.009Z,86.87
2017-02-06T04:58:40.146Z,87.05
2017-02-06T04:59:06.250Z,87.05
2017-02-06T04:59:32.364Z,86.87
2017-02-06T04:59:58.503Z,86.63
2017-02-06T05:00:24.596Z,86.72
2017-02-06T05:00:50.730Z,86.34
2017-02-06T05:01:16.885Z,86.82
2017-02-06T05:01:43.004Z,86.24
2017-02-06T05:02:09.166Z,86.82
2017-02-06T05:02:35.351Z,86.72
2017-02-06T05:03:01.462Z,86.91
2017-02-06T05:03:27.653Z,86.63
2017-02-06T05:03:53.791Z,86.91
2017-02-06T05:04:19.886Z,86.82
2017-02-06T05:04:46.038Z,86.82
2017-02-06T05:05:12.151Z,86.15
2017-02-06T05:05:38.296Z,86.05
2017-02-06T05:06:04.394Z,86.15
2017-02-06T05:06:30.535Z,85.96
2017-02-06T05:06:56.697Z,85.58
2017-02-06T05:07:22.824Z,85.96
2017-02-06T05:07:48.965Z,85.68
2017-02-06T05:08:15.117Z,86.15
2017-02-06T05:08:41.299Z,85.39
2017-02-06T05:09:07.378Z,85.58
2017-02-06T05:09:33.505Z,85.68
2017-02-06T05:09:59.666Z,85.39
2017-02-06T05:10:25.810Z,85.3
2017-02-06T05:10:52.005Z,85.68
2017-02-06T05:11:18.093Z,84.91
2017-02-06T05:11:44.228Z,85.01
2017-02-06T05:12:10.394Z,85.11
2017-02-06T05:12:36.564Z,85.39
2017-02-06T05:13:02.695Z,84.91
2017-02-06T05:13:28.824Z,84.44
2017-02-06T05:13:54.941Z,84.44
2017-02-06T05:14:21.066Z,84.72
2017-02-06T05:14:47.292Z,84.91
2017-02-06T05:15:13.409Z,84.82
2017-02-06T05:15:39.525Z,85.11
2017-02-06T05:16:05.656Z,84.82
2017-02-06T05:16:31.796Z,84.82
2017-02-06T05:16:57.936Z,85.2
2017-02-06T05:17:24.077Z,85.3
2017-02-06T05:17:50.206Z,84.72
2017-02-06T05:18:16.364Z,84.91
2017-02-06T05:18:42.485Z,85.2
2017-02-06T05:19:08.624Z,85.2
2017-02-06T05:19:34.759Z,84.53
2017-02-06T05:20:00.854Z,84.82
2017-02-06T05:20:27.003Z,84.53
2017-02-06T05:20:53.189Z,85.2
2017-02-06T05:21:19.315Z,84.82
2017-02-06T05:21:45.506Z,85.01
2017-02-06T05:22:11.604Z,85.11
2017-02-06T05:22:37.751Z,85.11
2017-02-06T05:23:03.917Z,85.2
2017-02-06T05:23:30.128Z,84.72
2017-02-06T05:23:56.267Z,84.72
2017-02-06T05:24:22.456Z,84.72
2017-02-06T05:24:48.619Z,84.16
2017-02-06T05:25:14.728Z,84.34
2017-02-06T05:25:40.864Z,83.97
2017-02-06T05:26:07.026Z,84.06
2017-02-06T05:26:33.197Z,84.34
2017-02-06T05:26:59.375Z,84.16
2017-02-06T05:27:25.497Z,84.82
2017-02-06T05:27:51.634Z,84.06
2017-02-06T05:28:17.786Z,84.44
2017-02-06T05:28:43.950Z,84.53
2017-02-06T05:29:10.156Z,84.82
2017-02-06T05:29:36.349Z,84.63
2017-02-06T05:30:02.511Z,83.78
2017-02-06T05:30:28.662Z,84.06
2017-02-06T05:30:54.864Z,84.25
2017-02-06T05:31:21.031Z,84.06
2017-02-06T05:31:47.126Z,84.34
2017-02-06T05:32:13.300Z,84.06
2017-02-06T05:32:39.463Z,84.25
2017-02-06T05:33:05.594Z,83.97
2017-02-06T05:33:31.747Z,84.25
2017-02-06T05:33:57.865Z,84.63
2017-02-06T05:34:23.997Z,84.53
2017-02-06T05:34:50.119Z,84.16
2017-02-06T05:35:16.250Z,84.25
2017-02-06T05:35:42.413Z,84.82
2017-02-06T05:36:08.534Z,84.44
2017-02-06T05:36:34.668Z,84.34
2017-02-06T05:37:00.840Z,84.34
2017-02-06T05:37:27.046Z,84.25
2017-02-06T05:37:53.137Z,84.06
2017-02-06T05:38:19.273Z,84.34
2017-02-06T05:38:45.393Z,84.53
2017-02-06T05:39:11.586Z,84.16